sensor_id;sensor_type;location;lat;lon;timestamp;temperature;humidity
19152;DHT22;9708;53.114;9.388;2023-08-20T00:01:35;18.30;99.90
19152;DHT22;9708;53.114;9.388;2023-08-20T00:04:02;18.20;99.90
19152;DHT22;9708;53.114;9.388;2023-08-20T00:06:30;18.20;99.90
19152;DHT22;9708;53.114;9.388;2023-08-20T00:08:57;18.20;99.90
19152;DHT22;9708;53.114;9.388;2023-08-20T00:11:26;18.10;99.90
19152;DHT22;9708;53.114;9.388;2023-08-20T00:13:52;18.00;99.90
19152;DHT22;9708;53.114;9.388;2023-08-20T00:16:20;18.00;99.90
19152;DHT22;9708;53.114;9.388;2023-08-20T00:18:47;17.90;99.90
19152;DHT22;9708;53.114;9.388;2023-08-20T00:21:14;17.90;99.90
19152;DHT22;9708;53.114;9.388;2023-08-20T00:23:41;18.00;99.90
19152;DHT22;9708;53.114;9.388;2023-08-20T00:26:09;18.10;99.90
19152;DHT22;9708;53.114;9.388;2023-08-20T00:28:37;18.10;99.90
19152;DHT22;9708;53.114;9.388;2023-08-20T00:31:04;18.00;99.90
19152;DHT22;9708;53.114;9.388;2023-08-20T00:33:31;17.90;99.90
19152;DHT22;9708;53.114;9.388;2023-08-20T00:35:58;17.90;99.90
19152;DHT22;9708;53.114;9.388;2023-08-20T00:38:24;17.90;99.90
19152;DHT22;9708;53.114;9.388;2023-08-20T00:40:51;17.90;99.90
19152;DHT22;9708;53.114;9.388;2023-08-20T00:43:18;17.80;99.90
19152;DHT22;9708;53.114;9.388;2023-08-20T00:45:46;17.80;99.90
19152;DHT22;9708;53.114;9.388;2023-08-20T00:48:13;17.80;99.90
19152;DHT22;9708;53.114;9.388;2023-08-20T00:50:40;17.80;99.90
19152;DHT22;9708;53.114;9.388;2023-08-20T00:53:08;17.80;99.90
19152;DHT22;9708;53.114;9.388;2023-08-20T00:55:36;17.70;99.90
19152;DHT22;9708;53.114;9.388;2023-08-20T00:58:04;17.70;99.90
19152;DHT22;9708;53.114;9.388;2023-08-20T01:00:31;17.70;99.90
19152;DHT22;9708;53.114;9.388;2023-08-20T01:02:59;17.60;99.90
19152;DHT22;9708;53.114;9.388;2023-08-20T01:05:31;17.60;99.90
19152;DHT22;9708;53.114;9.388;2023-08-20T01:08:04;17.50;99.90
19152;DHT22;9708;53.114;9.388;2023-08-20T01:10:39;17.40;99.90
19152;DHT22;9708;53.114;9.388;2023-08-20T01:13:10;17.40;99.90
19152;DHT22;9708;53.114;9.388;2023-08-20T01:15:37;17.30;99.90
19152;DHT22;9708;53.114;9.388;2023-08-20T01:18:05;17.30;99.90
19152;DHT22;9708;53.114;9.388;2023-08-20T01:20:38;17.20;99.90
19152;DHT22;9708;53.114;9.388;2023-08-20T01:26:21;17.30;99.90
19152;DHT22;9708;53.114;9.388;2023-08-20T01:28:54;17.20;99.90
19152;DHT22;9708;53.114;9.388;2023-08-20T01:31:21;17.20;99.90
19152;DHT22;9708;53.114;9.388;2023-08-20T01:33:49;17.20;99.90
19152;DHT22;9708;53.114;9.388;2023-08-20T01:36:17;17.10;99.90
19152;DHT22;9708;53.114;9.388;2023-08-20T01:38:43;17.10;99.90
19152;DHT22;9708;53.114;9.388;2023-08-20T01:41:10;17.00;99.90
19152;DHT22;9708;53.114;9.388;2023-08-20T01:43:37;16.90;99.90
19152;DHT22;9708;53.114;9.388;2023-08-20T01:46:07;16.90;99.90
19152;DHT22;9708;53.114;9.388;2023-08-20T01:48:34;17.00;99.90
19152;DHT22;9708;53.114;9.388;2023-08-20T01:51:01;16.90;99.90
19152;DHT22;9708;53.114;9.388;2023-08-20T01:53:28;16.90;99.90
19152;DHT22;9708;53.114;9.388;2023-08-20T01:55:55;16.90;99.90
19152;DHT22;9708;53.114;9.388;2023-08-20T01:58:21;16.80;99.90
19152;DHT22;9708;53.114;9.388;2023-08-20T02:00:48;16.70;99.90
19152;DHT22;9708;53.114;9.388;2023-08-20T02:03:16;16.60;99.90
19152;DHT22;9708;53.114;9.388;2023-08-20T02:05:43;16.60;99.90
19152;DHT22;9708;53.114;9.388;2023-08-20T02:08:10;16.60;99.90
19152;DHT22;9708;53.114;9.388;2023-08-20T02:10:37;16.60;99.90
19152;DHT22;9708;53.114;9.388;2023-08-20T02:13:03;16.60;99.90
19152;DHT22;9708;53.114;9.388;2023-08-20T02:15:30;16.50;99.90
19152;DHT22;9708;53.114;9.388;2023-08-20T02:17:57;16.50;99.90
19152;DHT22;9708;53.114;9.388;2023-08-20T02:20:26;16.50;99.90
19152;DHT22;9708;53.114;9.388;2023-08-20T02:22:53;16.40;99.90
19152;DHT22;9708;53.114;9.388;2023-08-20T02:25:20;16.40;99.90
19152;DHT22;9708;53.114;9.388;2023-08-20T02:27:47;16.40;99.90
19152;DHT22;9708;53.114;9.388;2023-08-20T02:30:14;16.40;99.90
19152;DHT22;9708;53.114;9.388;2023-08-20T02:32:40;16.40;99.90
19152;DHT22;9708;53.114;9.388;2023-08-20T02:35:08;16.40;99.90
19152;DHT22;9708;53.114;9.388;2023-08-20T02:37:36;16.40;99.90
19152;DHT22;9708;53.114;9.388;2023-08-20T02:40:04;16.40;99.90
19152;DHT22;9708;53.114;9.388;2023-08-20T02:42:31;16.30;99.90
19152;DHT22;9708;53.114;9.388;2023-08-20T02:44:58;16.20;99.90
19152;DHT22;9708;53.114;9.388;2023-08-20T02:47:25;16.20;99.90
19152;DHT22;9708;53.114;9.388;2023-08-20T02:49:52;16.20;99.90
19152;DHT22;9708;53.114;9.388;2023-08-20T02:52:19;16.10;99.90
19152;DHT22;9708;53.114;9.388;2023-08-20T02:54:47;16.10;99.90
19152;DHT22;9708;53.114;9.388;2023-08-20T02:57:14;16.10;99.90
19152;DHT22;9708;53.114;9.388;2023-08-20T02:59:41;16.10;99.90
19152;DHT22;9708;53.114;9.388;2023-08-20T03:02:08;16.10;99.90
19152;DHT22;9708;53.114;9.388;2023-08-20T03:04:34;16.10;99.90
19152;DHT22;9708;53.114;9.388;2023-08-20T03:07:01;16.10;99.90
19152;DHT22;9708;53.114;9.388;2023-08-20T03:09:28;16.10;99.90
19152;DHT22;9708;53.114;9.388;2023-08-20T03:11:56;16.10;99.90
19152;DHT22;9708;53.114;9.388;2023-08-20T03:14:23;16.10;99.90
19152;DHT22;9708;53.114;9.388;2023-08-20T03:16:49;16.10;99.90
19152;DHT22;9708;53.114;9.388;2023-08-20T03:19:17;16.10;99.90
19152;DHT22;9708;53.114;9.388;2023-08-20T03:21:44;16.10;99.90
19152;DHT22;9708;53.114;9.388;2023-08-20T03:24:11;16.10;99.90
19152;DHT22;9708;53.114;9.388;2023-08-20T03:26:38;16.20;99.90
19152;DHT22;9708;53.114;9.388;2023-08-20T03:29:06;16.20;99.90
19152;DHT22;9708;53.114;9.388;2023-08-20T03:31:32;16.30;99.90
19152;DHT22;9708;53.114;9.388;2023-08-20T03:33:59;16.30;99.90
19152;DHT22;9708;53.114;9.388;2023-08-20T03:36:26;16.30;99.90
19152;DHT22;9708;53.114;9.388;2023-08-20T03:38:53;16.20;99.90
19152;DHT22;9708;53.114;9.388;2023-08-20T03:41:19;16.30;99.90
19152;DHT22;9708;53.114;9.388;2023-08-20T03:43:46;16.30;99.90
19152;DHT22;9708;53.114;9.388;2023-08-20T03:46:14;16.20;99.90
19152;DHT22;9708;53.114;9.388;2023-08-20T03:48:42;16.20;99.90
19152;DHT22;9708;53.114;9.388;2023-08-20T03:51:08;16.20;99.90
19152;DHT22;9708;53.114;9.388;2023-08-20T03:53:35;16.20;99.90
19152;DHT22;9708;53.114;9.388;2023-08-20T03:56:02;16.20;99.90
19152;DHT22;9708;53.114;9.388;2023-08-20T03:58:29;16.20;99.90
19152;DHT22;9708;53.114;9.388;2023-08-20T04:00:55;16.20;99.90
19152;DHT22;9708;53.114;9.388;2023-08-20T04:03:24;16.20;99.90
19152;DHT22;9708;53.114;9.388;2023-08-20T04:05:50;16.30;99.90
19152;DHT22;9708;53.114;9.388;2023-08-20T04:08:17;16.30;99.90
19152;DHT22;9708;53.114;9.388;2023-08-20T04:10:44;16.30;99.90
19152;DHT22;9708;53.114;9.388;2023-08-20T04:13:11;16.20;99.90
19152;DHT22;9708;53.114;9.388;2023-08-20T04:15:39;16.20;99.90
19152;DHT22;9708;53.114;9.388;2023-08-20T04:18:06;16.20;99.90
19152;DHT22;9708;53.114;9.388;2023-08-20T04:20:34;16.20;99.90
19152;DHT22;9708;53.114;9.388;2023-08-20T04:23:01;16.20;99.90
19152;DHT22;9708;53.114;9.388;2023-08-20T04:25:28;16.20;99.90
19152;DHT22;9708;53.114;9.388;2023-08-20T04:27:54;16.20;99.90
19152;DHT22;9708;53.114;9.388;2023-08-20T04:30:21;16.20;99.90
19152;DHT22;9708;53.114;9.388;2023-08-20T04:32:48;16.20;99.90
19152;DHT22;9708;53.114;9.388;2023-08-20T04:35:15;16.20;99.90
19152;DHT22;9708;53.114;9.388;2023-08-20T04:37:43;16.20;99.90
19152;DHT22;9708;53.114;9.388;2023-08-20T04:40:10;16.20;99.90
19152;DHT22;9708;53.114;9.388;2023-08-20T04:42:38;16.20;99.90
19152;DHT22;9708;53.114;9.388;2023-08-20T04:45:05;16.20;99.90
19152;DHT22;9708;53.114;9.388;2023-08-20T04:47:32;16.20;99.90
19152;DHT22;9708;53.114;9.388;2023-08-20T04:49:59;16.20;99.90
19152;DHT22;9708;53.114;9.388;2023-08-20T04:52:26;16.20;99.90
19152;DHT22;9708;53.114;9.388;2023-08-20T04:54:55;16.30;99.90
19152;DHT22;9708;53.114;9.388;2023-08-20T04:57:21;16.30;99.90
19152;DHT22;9708;53.114;9.388;2023-08-20T04:59:48;16.30;99.90
19152;DHT22;9708;53.114;9.388;2023-08-20T05:02:15;16.40;99.90
19152;DHT22;9708;53.114;9.388;2023-08-20T05:04:42;16.40;99.90
19152;DHT22;9708;53.114;9.388;2023-08-20T05:07:09;16.40;99.90
19152;DHT22;9708;53.114;9.388;2023-08-20T05:09:35;16.50;99.90
19152;DHT22;9708;53.114;9.388;2023-08-20T05:12:04;16.60;99.90
19152;DHT22;9708;53.114;9.388;2023-08-20T05:14:31;16.70;99.90
19152;DHT22;9708;53.114;9.388;2023-08-20T05:16:57;16.80;99.90
19152;DHT22;9708;53.114;9.388;2023-08-20T05:19:24;16.80;99.90
19152;DHT22;9708;53.114;9.388;2023-08-20T05:21:51;16.90;99.90
19152;DHT22;9708;53.114;9.388;2023-08-20T05:24:21;17.00;99.90
19152;DHT22;9708;53.114;9.388;2023-08-20T05:27:05;17.00;99.90
19152;DHT22;9708;53.114;9.388;2023-08-20T05:29:32;17.10;99.90
19152;DHT22;9708;53.114;9.388;2023-08-20T05:31:59;17.30;99.90
19152;DHT22;9708;53.114;9.388;2023-08-20T05:34:25;17.40;99.90
19152;DHT22;9708;53.114;9.388;2023-08-20T05:36:52;17.50;99.90
19152;DHT22;9708;53.114;9.388;2023-08-20T05:39:19;17.60;99.90
19152;DHT22;9708;53.114;9.388;2023-08-20T05:41:46;17.80;99.90
19152;DHT22;9708;53.114;9.388;2023-08-20T05:44:14;17.80;99.90
19152;DHT22;9708;53.114;9.388;2023-08-20T05:46:40;18.00;99.90
19152;DHT22;9708;53.114;9.388;2023-08-20T05:49:07;18.10;99.90
19152;DHT22;9708;53.114;9.388;2023-08-20T05:51:34;18.20;99.90
19152;DHT22;9708;53.114;9.388;2023-08-20T05:54:01;18.20;99.90
19152;DHT22;9708;53.114;9.388;2023-08-20T05:56:28;18.30;99.90
19152;DHT22;9708;53.114;9.388;2023-08-20T05:58:54;18.30;99.90
19152;DHT22;9708;53.114;9.388;2023-08-20T06:01:23;18.80;99.90
19152;DHT22;9708;53.114;9.388;2023-08-20T06:03:49;19.10;99.90
19152;DHT22;9708;53.114;9.388;2023-08-20T06:06:16;19.40;99.90
19152;DHT22;9708;53.114;9.388;2023-08-20T06:08:43;19.50;99.90
19152;DHT22;9708;53.114;9.388;2023-08-20T06:11:10;19.60;99.90
19152;DHT22;9708;53.114;9.388;2023-08-20T06:13:36;19.90;99.90
19152;DHT22;9708;53.114;9.388;2023-08-20T06:16:03;20.50;99.90
19152;DHT22;9708;53.114;9.388;2023-08-20T06:18:32;21.60;99.90
19152;DHT22;9708;53.114;9.388;2023-08-20T06:20:58;22.80;99.90
19152;DHT22;9708;53.114;9.388;2023-08-20T06:23:25;23.70;99.90
19152;DHT22;9708;53.114;9.388;2023-08-20T06:25:52;24.30;99.90
19152;DHT22;9708;53.114;9.388;2023-08-20T06:28:19;25.10;99.90
19152;DHT22;9708;53.114;9.388;2023-08-20T06:30:46;25.90;99.90
19152;DHT22;9708;53.114;9.388;2023-08-20T06:33:12;26.30;99.90
19152;DHT22;9708;53.114;9.388;2023-08-20T06:35:40;26.80;99.90
19152;DHT22;9708;53.114;9.388;2023-08-20T06:38:08;27.00;99.90
19152;DHT22;9708;53.114;9.388;2023-08-20T06:40:34;27.50;99.90
19152;DHT22;9708;53.114;9.388;2023-08-20T06:43:01;28.40;99.90
19152;DHT22;9708;53.114;9.388;2023-08-20T06:45:29;27.70;99.90
19152;DHT22;9708;53.114;9.388;2023-08-20T06:47:56;27.30;99.90
19152;DHT22;9708;53.114;9.388;2023-08-20T06:50:23;27.10;99.90
19152;DHT22;9708;53.114;9.388;2023-08-20T06:52:51;27.60;99.90
19152;DHT22;9708;53.114;9.388;2023-08-20T06:55:18;27.90;99.90
19152;DHT22;9708;53.114;9.388;2023-08-20T06:57:45;29.20;99.90
19152;DHT22;9708;53.114;9.388;2023-08-20T07:00:12;28.90;99.90
19152;DHT22;9708;53.114;9.388;2023-08-20T07:02:39;29.40;99.90
19152;DHT22;9708;53.114;9.388;2023-08-20T07:05:06;28.80;99.90
19152;DHT22;9708;53.114;9.388;2023-08-20T07:07:34;28.40;99.90
19152;DHT22;9708;53.114;9.388;2023-08-20T07:10:03;28.00;99.90
19152;DHT22;9708;53.114;9.388;2023-08-20T07:12:30;28.80;99.90
19152;DHT22;9708;53.114;9.388;2023-08-20T07:14:57;28.80;99.90
19152;DHT22;9708;53.114;9.388;2023-08-20T07:17:23;28.70;99.90
19152;DHT22;9708;53.114;9.388;2023-08-20T07:19:50;28.30;99.90
19152;DHT22;9708;53.114;9.388;2023-08-20T07:22:17;28.30;99.90
19152;DHT22;9708;53.114;9.388;2023-08-20T07:24:44;28.50;99.90
19152;DHT22;9708;53.114;9.388;2023-08-20T07:27:12;28.30;99.90
19152;DHT22;9708;53.114;9.388;2023-08-20T07:29:38;28.10;99.90
19152;DHT22;9708;53.114;9.388;2023-08-20T07:32:05;28.20;99.90
19152;DHT22;9708;53.114;9.388;2023-08-20T07:34:33;28.50;99.90
19152;DHT22;9708;53.114;9.388;2023-08-20T07:36:59;28.60;99.90
19152;DHT22;9708;53.114;9.388;2023-08-20T07:39:27;29.30;99.90
19152;DHT22;9708;53.114;9.388;2023-08-20T07:41:53;28.80;99.90
19152;DHT22;9708;53.114;9.388;2023-08-20T07:44:21;28.10;99.90
19152;DHT22;9708;53.114;9.388;2023-08-20T07:46:48;27.90;99.90
19152;DHT22;9708;53.114;9.388;2023-08-20T07:49:15;28.30;99.90
19152;DHT22;9708;53.114;9.388;2023-08-20T07:51:42;28.80;99.90
19152;DHT22;9708;53.114;9.388;2023-08-20T07:54:08;28.00;99.90
19152;DHT22;9708;53.114;9.388;2023-08-20T07:56:35;28.00;99.90
19152;DHT22;9708;53.114;9.388;2023-08-20T07:59:02;28.10;99.90
19152;DHT22;9708;53.114;9.388;2023-08-20T08:01:30;28.00;99.90
19152;DHT22;9708;53.114;9.388;2023-08-20T08:03:57;27.80;99.90
19152;DHT22;9708;53.114;9.388;2023-08-20T08:06:24;28.00;99.90
19152;DHT22;9708;53.114;9.388;2023-08-20T08:08:50;27.50;99.90
19152;DHT22;9708;53.114;9.388;2023-08-20T08:11:17;27.50;99.90
19152;DHT22;9708;53.114;9.388;2023-08-20T08:13:44;27.80;99.90
19152;DHT22;9708;53.114;9.388;2023-08-20T08:16:11;27.50;99.90
19152;DHT22;9708;53.114;9.388;2023-08-20T08:18:39;27.50;99.90
19152;DHT22;9708;53.114;9.388;2023-08-20T08:21:05;27.50;99.90
19152;DHT22;9708;53.114;9.388;2023-08-20T08:23:32;27.50;99.90
19152;DHT22;9708;53.114;9.388;2023-08-20T08:25:59;27.20;99.90
19152;DHT22;9708;53.114;9.388;2023-08-20T08:28:26;27.30;99.90
19152;DHT22;9708;53.114;9.388;2023-08-20T08:30:52;27.50;99.90
19152;DHT22;9708;53.114;9.388;2023-08-20T08:33:19;28.00;99.90
19152;DHT22;9708;53.114;9.388;2023-08-20T08:35:47;28.00;99.90
19152;DHT22;9708;53.114;9.388;2023-08-20T08:38:14;28.60;99.90
19152;DHT22;9708;53.114;9.388;2023-08-20T08:40:42;27.90;99.90
19152;DHT22;9708;53.114;9.388;2023-08-20T08:43:10;27.90;99.90
19152;DHT22;9708;53.114;9.388;2023-08-20T08:45:42;28.30;99.90
19152;DHT22;9708;53.114;9.388;2023-08-20T08:48:12;28.10;99.90
19152;DHT22;9708;53.114;9.388;2023-08-20T08:50:39;28.30;99.90
19152;DHT22;9708;53.114;9.388;2023-08-20T08:53:08;28.50;99.90
19152;DHT22;9708;53.114;9.388;2023-08-20T08:55:35;28.50;99.90
19152;DHT22;9708;53.114;9.388;2023-08-20T08:58:03;28.40;99.90
19152;DHT22;9708;53.114;9.388;2023-08-20T09:00:29;28.30;99.90
19152;DHT22;9708;53.114;9.388;2023-08-20T09:02:58;27.90;99.90
19152;DHT22;9708;53.114;9.388;2023-08-20T09:05:24;28.00;99.90
19152;DHT22;9708;53.114;9.388;2023-08-20T09:07:55;28.90;99.90
19152;DHT22;9708;53.114;9.388;2023-08-20T09:10:26;29.50;99.90
19152;DHT22;9708;53.114;9.388;2023-08-20T09:12:54;29.50;99.90
19152;DHT22;9708;53.114;9.388;2023-08-20T09:15:31;29.00;99.90
19152;DHT22;9708;53.114;9.388;2023-08-20T09:18:00;28.50;99.90
19152;DHT22;9708;53.114;9.388;2023-08-20T09:20:34;28.00;99.90
19152;DHT22;9708;53.114;9.388;2023-08-20T09:23:01;28.00;99.90
19152;DHT22;9708;53.114;9.388;2023-08-20T09:25:29;28.20;99.90
19152;DHT22;9708;53.114;9.388;2023-08-20T09:27:56;28.70;99.90
19152;DHT22;9708;53.114;9.388;2023-08-20T09:30:23;29.10;99.90
19152;DHT22;9708;53.114;9.388;2023-08-20T09:33:03;29.00;99.90
19152;DHT22;9708;53.114;9.388;2023-08-20T09:35:31;29.50;99.90
19152;DHT22;9708;53.114;9.388;2023-08-20T09:38:02;29.40;99.90
19152;DHT22;9708;53.114;9.388;2023-08-20T09:40:31;29.20;99.90
19152;DHT22;9708;53.114;9.388;2023-08-20T09:42:58;29.30;99.90
19152;DHT22;9708;53.114;9.388;2023-08-20T09:45:28;29.70;99.90
19152;DHT22;9708;53.114;9.388;2023-08-20T09:47:55;30.00;99.90
19152;DHT22;9708;53.114;9.388;2023-08-20T09:50:26;29.90;99.90
19152;DHT22;9708;53.114;9.388;2023-08-20T09:52:57;30.00;99.90
19152;DHT22;9708;53.114;9.388;2023-08-20T09:55:29;30.00;99.90
19152;DHT22;9708;53.114;9.388;2023-08-20T09:57:58;30.50;99.90
19152;DHT22;9708;53.114;9.388;2023-08-20T10:00:25;31.00;99.90
19152;DHT22;9708;53.114;9.388;2023-08-20T10:02:54;30.90;99.90
19152;DHT22;9708;53.114;9.388;2023-08-20T10:05:23;31.10;99.90
19152;DHT22;9708;53.114;9.388;2023-08-20T10:07:50;30.80;99.90
19152;DHT22;9708;53.114;9.388;2023-08-20T10:10:17;30.90;99.90
19152;DHT22;9708;53.114;9.388;2023-08-20T10:12:45;31.20;99.90
19152;DHT22;9708;53.114;9.388;2023-08-20T10:15:15;31.20;99.90
19152;DHT22;9708;53.114;9.388;2023-08-20T10:17:44;31.50;99.90
19152;DHT22;9708;53.114;9.388;2023-08-20T10:20:13;31.30;99.90
19152;DHT22;9708;53.114;9.388;2023-08-20T10:22:43;31.60;99.90
19152;DHT22;9708;53.114;9.388;2023-08-20T10:25:11;31.90;99.90
19152;DHT22;9708;53.114;9.388;2023-08-20T10:27:40;31.90;99.90
19152;DHT22;9708;53.114;9.388;2023-08-20T10:30:09;31.80;99.90
19152;DHT22;9708;53.114;9.388;2023-08-20T10:32:46;32.40;99.90
19152;DHT22;9708;53.114;9.388;2023-08-20T10:35:15;32.40;99.90
19152;DHT22;9708;53.114;9.388;2023-08-20T10:38:00;32.30;99.90
19152;DHT22;9708;53.114;9.388;2023-08-20T10:40:51;32.20;99.90
19152;DHT22;9708;53.114;9.388;2023-08-20T10:43:27;32.20;99.90
19152;DHT22;9708;53.114;9.388;2023-08-20T10:48:50;31.60;99.90
19152;DHT22;9708;53.114;9.388;2023-08-20T10:51:19;30.50;99.90
19152;DHT22;9708;53.114;9.388;2023-08-20T10:54:03;29.90;99.90
19152;DHT22;9708;53.114;9.388;2023-08-20T10:56:40;30.40;99.90
19152;DHT22;9708;53.114;9.388;2023-08-20T10:59:08;30.80;99.90
19152;DHT22;9708;53.114;9.388;2023-08-20T11:01:35;30.50;99.90
19152;DHT22;9708;53.114;9.388;2023-08-20T11:04:04;29.70;99.90
19152;DHT22;9708;53.114;9.388;2023-08-20T11:06:33;30.00;99.90
19152;DHT22;9708;53.114;9.388;2023-08-20T11:09:00;30.60;99.90
19152;DHT22;9708;53.114;9.388;2023-08-20T11:11:28;30.10;99.90
19152;DHT22;9708;53.114;9.388;2023-08-20T11:13:55;29.80;99.90
19152;DHT22;9708;53.114;9.388;2023-08-20T11:16:22;29.90;99.90
19152;DHT22;9708;53.114;9.388;2023-08-20T11:18:51;29.90;99.90
19152;DHT22;9708;53.114;9.388;2023-08-20T11:21:20;29.50;99.90
19152;DHT22;9708;53.114;9.388;2023-08-20T11:23:46;29.10;99.90
19152;DHT22;9708;53.114;9.388;2023-08-20T11:26:13;29.20;99.90
19152;DHT22;9708;53.114;9.388;2023-08-20T11:28:45;29.10;99.90
19152;DHT22;9708;53.114;9.388;2023-08-20T11:31:12;28.60;99.90
19152;DHT22;9708;53.114;9.388;2023-08-20T11:33:39;28.30;99.90
19152;DHT22;9708;53.114;9.388;2023-08-20T11:36:06;28.70;99.90
19152;DHT22;9708;53.114;9.388;2023-08-20T11:38:34;29.90;99.90
19152;DHT22;9708;53.114;9.388;2023-08-20T11:41:01;29.90;99.90
19152;DHT22;9708;53.114;9.388;2023-08-20T11:43:28;28.90;99.90
19152;DHT22;9708;53.114;9.388;2023-08-20T11:45:55;28.60;99.90
19152;DHT22;9708;53.114;9.388;2023-08-20T11:48:22;29.10;99.90
19152;DHT22;9708;53.114;9.388;2023-08-20T11:50:50;29.60;99.90
19152;DHT22;9708;53.114;9.388;2023-08-20T11:53:21;29.20;99.90
19152;DHT22;9708;53.114;9.388;2023-08-20T11:55:49;28.70;99.90
19152;DHT22;9708;53.114;9.388;2023-08-20T11:58:18;28.90;99.90
19152;DHT22;9708;53.114;9.388;2023-08-20T12:00:48;29.40;99.90
19152;DHT22;9708;53.114;9.388;2023-08-20T12:03:18;29.40;99.90
19152;DHT22;9708;53.114;9.388;2023-08-20T12:05:45;30.00;99.90
19152;DHT22;9708;53.114;9.388;2023-08-20T12:08:15;30.50;99.90
19152;DHT22;9708;53.114;9.388;2023-08-20T12:10:43;30.70;99.90
19152;DHT22;9708;53.114;9.388;2023-08-20T12:13:11;31.00;99.90
19152;DHT22;9708;53.114;9.388;2023-08-20T12:15:41;31.60;99.90
19152;DHT22;9708;53.114;9.388;2023-08-20T12:18:09;30.50;99.90
19152;DHT22;9708;53.114;9.388;2023-08-20T12:20:36;30.10;99.90
19152;DHT22;9708;53.114;9.388;2023-08-20T12:23:05;30.00;99.90
19152;DHT22;9708;53.114;9.388;2023-08-20T12:25:33;30.00;99.90
19152;DHT22;9708;53.114;9.388;2023-08-20T12:28:01;29.60;99.90
19152;DHT22;9708;53.114;9.388;2023-08-20T12:30:31;30.10;99.90
19152;DHT22;9708;53.114;9.388;2023-08-20T12:32:59;30.20;99.90
19152;DHT22;9708;53.114;9.388;2023-08-20T12:35:26;30.60;99.90
19152;DHT22;9708;53.114;9.388;2023-08-20T12:37:53;30.70;99.90
19152;DHT22;9708;53.114;9.388;2023-08-20T12:40:19;30.50;99.90
19152;DHT22;9708;53.114;9.388;2023-08-20T12:42:47;30.00;99.90
19152;DHT22;9708;53.114;9.388;2023-08-20T12:45:14;29.70;99.90
19152;DHT22;9708;53.114;9.388;2023-08-20T12:47:42;29.10;99.90
19152;DHT22;9708;53.114;9.388;2023-08-20T12:50:09;28.90;99.90
19152;DHT22;9708;53.114;9.388;2023-08-20T12:52:39;28.90;99.90
19152;DHT22;9708;53.114;9.388;2023-08-20T12:55:06;28.90;99.90
19152;DHT22;9708;53.114;9.388;2023-08-20T12:57:34;28.80;99.90
19152;DHT22;9708;53.114;9.388;2023-08-20T13:00:02;29.00;99.90
19152;DHT22;9708;53.114;9.388;2023-08-20T13:02:33;28.70;99.90
19152;DHT22;9708;53.114;9.388;2023-08-20T13:05:02;28.60;99.90
19152;DHT22;9708;53.114;9.388;2023-08-20T13:07:31;28.70;99.90
19152;DHT22;9708;53.114;9.388;2023-08-20T13:09:58;28.40;99.90
19152;DHT22;9708;53.114;9.388;2023-08-20T13:12:27;28.20;99.90
19152;DHT22;9708;53.114;9.388;2023-08-20T13:14:55;28.10;99.90
19152;DHT22;9708;53.114;9.388;2023-08-20T13:17:22;28.40;99.90
19152;DHT22;9708;53.114;9.388;2023-08-20T13:19:49;28.70;99.90
19152;DHT22;9708;53.114;9.388;2023-08-20T13:22:17;29.00;99.90
19152;DHT22;9708;53.114;9.388;2023-08-20T13:24:44;29.50;99.90
19152;DHT22;9708;53.114;9.388;2023-08-20T13:27:10;30.30;99.90
19152;DHT22;9708;53.114;9.388;2023-08-20T13:29:37;30.60;99.90
19152;DHT22;9708;53.114;9.388;2023-08-20T13:32:04;30.90;99.90
19152;DHT22;9708;53.114;9.388;2023-08-20T13:34:32;30.90;99.90
19152;DHT22;9708;53.114;9.388;2023-08-20T13:36:58;30.50;99.90
19152;DHT22;9708;53.114;9.388;2023-08-20T13:39:26;30.50;99.90
19152;DHT22;9708;53.114;9.388;2023-08-20T13:41:53;30.50;99.90
19152;DHT22;9708;53.114;9.388;2023-08-20T13:44:20;30.70;99.90
19152;DHT22;9708;53.114;9.388;2023-08-20T13:46:47;30.50;99.90
19152;DHT22;9708;53.114;9.388;2023-08-20T13:49:14;29.90;99.90
19152;DHT22;9708;53.114;9.388;2023-08-20T13:51:41;29.20;99.90
19152;DHT22;9708;53.114;9.388;2023-08-20T13:54:08;28.80;99.90
19152;DHT22;9708;53.114;9.388;2023-08-20T13:56:36;29.00;99.90
19152;DHT22;9708;53.114;9.388;2023-08-20T13:59:03;28.80;99.90
19152;DHT22;9708;53.114;9.388;2023-08-20T14:01:30;28.60;99.90
19152;DHT22;9708;53.114;9.388;2023-08-20T14:03:56;28.40;99.90
19152;DHT22;9708;53.114;9.388;2023-08-20T14:06:23;28.50;99.90
19152;DHT22;9708;53.114;9.388;2023-08-20T14:08:50;28.20;99.90
19152;DHT22;9708;53.114;9.388;2023-08-20T14:11:17;28.10;99.90
19152;DHT22;9708;53.114;9.388;2023-08-20T14:13:46;28.10;99.90
19152;DHT22;9708;53.114;9.388;2023-08-20T14:16:13;28.20;99.90
19152;DHT22;9708;53.114;9.388;2023-08-20T14:18:40;28.30;99.90
19152;DHT22;9708;53.114;9.388;2023-08-20T14:21:07;28.50;99.90
19152;DHT22;9708;53.114;9.388;2023-08-20T14:23:34;28.40;99.90
19152;DHT22;9708;53.114;9.388;2023-08-20T14:26:01;28.50;99.90
19152;DHT22;9708;53.114;9.388;2023-08-20T14:28:28;28.70;99.90
19152;DHT22;9708;53.114;9.388;2023-08-20T14:30:56;28.70;99.90
19152;DHT22;9708;53.114;9.388;2023-08-20T14:33:23;28.60;99.90
19152;DHT22;9708;53.114;9.388;2023-08-20T14:35:49;28.60;99.90
19152;DHT22;9708;53.114;9.388;2023-08-20T14:38:16;28.40;99.90
19152;DHT22;9708;53.114;9.388;2023-08-20T14:40:43;28.30;99.90
19152;DHT22;9708;53.114;9.388;2023-08-20T14:43:10;28.10;99.90
19152;DHT22;9708;53.114;9.388;2023-08-20T14:45:36;28.00;99.90
19152;DHT22;9708;53.114;9.388;2023-08-20T14:48:05;27.50;99.90
19152;DHT22;9708;53.114;9.388;2023-08-20T14:50:32;27.40;99.90
19152;DHT22;9708;53.114;9.388;2023-08-20T14:52:59;27.60;99.90
19152;DHT22;9708;53.114;9.388;2023-08-20T14:55:26;27.40;99.90
19152;DHT22;9708;53.114;9.388;2023-08-20T14:57:52;27.30;99.90
19152;DHT22;9708;53.114;9.388;2023-08-20T15:00:19;27.50;99.90
19152;DHT22;9708;53.114;9.388;2023-08-20T15:02:48;27.40;99.90
19152;DHT22;9708;53.114;9.388;2023-08-20T15:05:16;27.10;99.90
19152;DHT22;9708;53.114;9.388;2023-08-20T15:07:43;27.00;99.90
19152;DHT22;9708;53.114;9.388;2023-08-20T15:10:10;26.80;99.90
19152;DHT22;9708;53.114;9.388;2023-08-20T15:12:37;26.70;99.90
19152;DHT22;9708;53.114;9.388;2023-08-20T15:15:05;26.60;99.90
19152;DHT22;9708;53.114;9.388;2023-08-20T15:17:32;26.60;99.90
19152;DHT22;9708;53.114;9.388;2023-08-20T15:19:59;26.70;99.90
19152;DHT22;9708;53.114;9.388;2023-08-20T15:22:27;26.90;99.90
19152;DHT22;9708;53.114;9.388;2023-08-20T15:24:54;27.00;99.90
19152;DHT22;9708;53.114;9.388;2023-08-20T15:27:23;26.80;99.90
19152;DHT22;9708;53.114;9.388;2023-08-20T15:29:50;26.80;99.90
19152;DHT22;9708;53.114;9.388;2023-08-20T15:32:16;26.60;99.90
19152;DHT22;9708;53.114;9.388;2023-08-20T15:34:43;26.50;99.90
19152;DHT22;9708;53.114;9.388;2023-08-20T15:37:10;26.40;99.90
19152;DHT22;9708;53.114;9.388;2023-08-20T15:39:39;26.30;99.90
19152;DHT22;9708;53.114;9.388;2023-08-20T15:42:05;26.30;99.90
19152;DHT22;9708;53.114;9.388;2023-08-20T15:44:32;26.30;99.90
19152;DHT22;9708;53.114;9.388;2023-08-20T15:46:59;26.20;99.90
19152;DHT22;9708;53.114;9.388;2023-08-20T15:49:26;26.10;99.90
19152;DHT22;9708;53.114;9.388;2023-08-20T15:51:53;26.10;99.90
19152;DHT22;9708;53.114;9.388;2023-08-20T15:54:20;26.20;99.90